sensor_id;sensor_type;location;lat;lon;timestamp;temperature;humidity
680;DHT22;322;48.846;9.230;2023-05-27T00:01:58;13.40;79.10
680;DHT22;322;48.846;9.230;2023-05-27T00:04:26;13.40;78.10
680;DHT22;322;48.846;9.230;2023-05-27T00:06:54;13.20;75.30
680;DHT22;322;48.846;9.230;2023-05-27T00:09:22;13.30;73.40
680;DHT22;322;48.846;9.230;2023-05-27T00:11:50;13.20;74.60
680;DHT22;322;48.846;9.230;2023-05-27T00:14:18;13.20;72.40
680;DHT22;322;48.846;9.230;2023-05-27T00:16:48;13.50;71.90
680;DHT22;322;48.846;9.230;2023-05-27T00:19:20;13.60;72.30
680;DHT22;322;48.846;9.230;2023-05-27T00:21:48;13.50;75.60
680;DHT22;322;48.846;9.230;2023-05-27T00:24:18;13.40;82.70
680;DHT22;322;48.846;9.230;2023-05-27T00:26:47;13.40;74.80
680;DHT22;322;48.846;9.230;2023-05-27T00:29:16;13.50;72.90
680;DHT22;322;48.846;9.230;2023-05-27T00:31:44;13.60;71.60
680;DHT22;322;48.846;9.230;2023-05-27T00:34:13;13.70;71.60
680;DHT22;322;48.846;9.230;2023-05-27T00:36:41;13.80;70.50
680;DHT22;322;48.846;9.230;2023-05-27T00:39:09;13.90;69.70
680;DHT22;322;48.846;9.230;2023-05-27T00:41:38;13.90;69.70
680;DHT22;322;48.846;9.230;2023-05-27T00:44:06;13.90;69.90
680;DHT22;322;48.846;9.230;2023-05-27T00:46:34;13.80;70.30
680;DHT22;322;48.846;9.230;2023-05-27T00:49:04;13.80;70.20
680;DHT22;322;48.846;9.230;2023-05-27T00:51:33;13.70;73.40
680;DHT22;322;48.846;9.230;2023-05-27T00:54:02;13.60;73.20
680;DHT22;322;48.846;9.230;2023-05-27T00:56:30;13.50;71.50
680;DHT22;322;48.846;9.230;2023-05-27T00:58:58;13.60;70.90
680;DHT22;322;48.846;9.230;2023-05-27T01:01:26;13.50;73.60
680;DHT22;322;48.846;9.230;2023-05-27T01:03:55;13.50;72.80
680;DHT22;322;48.846;9.230;2023-05-27T01:06:30;13.40;72.40
680;DHT22;322;48.846;9.230;2023-05-27T01:09:06;13.40;71.80
680;DHT22;322;48.846;9.230;2023-05-27T01:11:39;13.40;72.10
680;DHT22;322;48.846;9.230;2023-05-27T01:14:11;13.40;71.40
680;DHT22;322;48.846;9.230;2023-05-27T01:16:40;13.40;72.50
680;DHT22;322;48.846;9.230;2023-05-27T01:19:13;13.40;72.70
680;DHT22;322;48.846;9.230;2023-05-27T01:21:46;13.10;78.60
680;DHT22;322;48.846;9.230;2023-05-27T01:24:19;13.00;74.40
680;DHT22;322;48.846;9.230;2023-05-27T01:26:47;12.90;75.50
680;DHT22;322;48.846;9.230;2023-05-27T01:29:15;12.80;77.40
680;DHT22;322;48.846;9.230;2023-05-27T01:31:50;12.70;76.90
680;DHT22;322;48.846;9.230;2023-05-27T01:34:25;12.80;76.90
680;DHT22;322;48.846;9.230;2023-05-27T01:36:56;12.70;76.80
680;DHT22;322;48.846;9.230;2023-05-27T01:39:28;12.80;76.80
680;DHT22;322;48.846;9.230;2023-05-27T01:41:56;12.70;77.50
680;DHT22;322;48.846;9.230;2023-05-27T01:44:25;12.60;78.30
680;DHT22;322;48.846;9.230;2023-05-27T01:46:58;12.50;79.20
680;DHT22;322;48.846;9.230;2023-05-27T01:49:27;12.30;80.60
680;DHT22;322;48.846;9.230;2023-05-27T01:51:55;12.30;80.00
680;DHT22;322;48.846;9.230;2023-05-27T01:54:22;12.30;80.00
680;DHT22;322;48.846;9.230;2023-05-27T01:56:52;12.30;81.20
680;DHT22;322;48.846;9.230;2023-05-27T01:59:20;12.30;80.20
680;DHT22;322;48.846;9.230;2023-05-27T02:01:48;12.20;80.20
680;DHT22;322;48.846;9.230;2023-05-27T02:04:16;12.30;79.80
680;DHT22;322;48.846;9.230;2023-05-27T02:06:44;12.30;79.50
680;DHT22;322;48.846;9.230;2023-05-27T02:09:12;12.40;79.30
680;DHT22;322;48.846;9.230;2023-05-27T02:11:41;12.40;79.60
680;DHT22;322;48.846;9.230;2023-05-27T02:14:10;12.30;80.30
680;DHT22;322;48.846;9.230;2023-05-27T02:16:39;12.20;81.20
680;DHT22;322;48.846;9.230;2023-05-27T02:19:07;12.00;82.00
680;DHT22;322;48.846;9.230;2023-05-27T02:21:35;11.90;82.80
680;DHT22;322;48.846;9.230;2023-05-27T02:24:04;11.90;83.10
680;DHT22;322;48.846;9.230;2023-05-27T02:26:33;11.80;84.00
680;DHT22;322;48.846;9.230;2023-05-27T02:29:01;11.80;89.50
680;DHT22;322;48.846;9.230;2023-05-27T02:31:31;11.60;90.60
680;DHT22;322;48.846;9.230;2023-05-27T02:33:59;11.50;92.50
680;DHT22;322;48.846;9.230;2023-05-27T02:36:27;11.30;92.60
680;DHT22;322;48.846;9.230;2023-05-27T02:38:55;11.10;92.70
680;DHT22;322;48.846;9.230;2023-05-27T02:41:23;10.90;93.70
680;DHT22;322;48.846;9.230;2023-05-27T02:43:51;10.80;94.70
680;DHT22;322;48.846;9.230;2023-05-27T02:46:19;10.80;94.40
680;DHT22;322;48.846;9.230;2023-05-27T02:48:48;10.70;95.10
680;DHT22;322;48.846;9.230;2023-05-27T02:51:16;10.60;94.90
680;DHT22;322;48.846;9.230;2023-05-27T02:53:44;10.60;95.80
680;DHT22;322;48.846;9.230;2023-05-27T02:56:12;10.60;96.00
680;DHT22;322;48.846;9.230;2023-05-27T02:58:40;10.50;96.60
680;DHT22;322;48.846;9.230;2023-05-27T03:01:08;10.40;96.00
680;DHT22;322;48.846;9.230;2023-05-27T03:03:36;10.30;95.80
680;DHT22;322;48.846;9.230;2023-05-27T03:06:06;10.30;97.10
680;DHT22;322;48.846;9.230;2023-05-27T03:08:34;10.20;95.90
680;DHT22;322;48.846;9.230;2023-05-27T03:11:02;10.30;95.80
680;DHT22;322;48.846;9.230;2023-05-27T03:13:30;10.40;95.30
680;DHT22;322;48.846;9.230;2023-05-27T03:15:58;10.60;94.50
680;DHT22;322;48.846;9.230;2023-05-27T03:18:26;10.80;93.80
680;DHT22;322;48.846;9.230;2023-05-27T03:20:54;10.90;93.40
680;DHT22;322;48.846;9.230;2023-05-27T03:23:24;11.00;93.10
680;DHT22;322;48.846;9.230;2023-05-27T03:25:52;11.00;92.80
680;DHT22;322;48.846;9.230;2023-05-27T03:28:20;11.00;93.10
680;DHT22;322;48.846;9.230;2023-05-27T03:30:48;11.10;92.90
680;DHT22;322;48.846;9.230;2023-05-27T03:33:16;11.00;92.90
680;DHT22;322;48.846;9.230;2023-05-27T03:35:44;11.00;93.40
680;DHT22;322;48.846;9.230;2023-05-27T03:38:12;10.90;96.80
680;DHT22;322;48.846;9.230;2023-05-27T03:40:41;10.80;97.70
680;DHT22;322;48.846;9.230;2023-05-27T03:43:09;10.70;97.90
680;DHT22;322;48.846;9.230;2023-05-27T03:45:37;10.60;97.70
680;DHT22;322;48.846;9.230;2023-05-27T03:48:05;10.60;95.60
680;DHT22;322;48.846;9.230;2023-05-27T03:50:34;10.60;95.70
680;DHT22;322;48.846;9.230;2023-05-27T03:53:02;10.60;95.30
680;DHT22;322;48.846;9.230;2023-05-27T03:55:30;10.60;97.00
680;DHT22;322;48.846;9.230;2023-05-27T03:57:59;10.50;96.10
680;DHT22;322;48.846;9.230;2023-05-27T04:00:27;10.60;96.60
680;DHT22;322;48.846;9.230;2023-05-27T04:02:57;10.60;95.40
680;DHT22;322;48.846;9.230;2023-05-27T04:05:25;10.70;95.80
680;DHT22;322;48.846;9.230;2023-05-27T04:07:53;10.60;95.70
680;DHT22;322;48.846;9.230;2023-05-27T04:10:21;10.60;97.10
680;DHT22;322;48.846;9.230;2023-05-27T04:12:49;10.70;97.60
680;DHT22;322;48.846;9.230;2023-05-27T04:15:18;10.70;97.90
680;DHT22;322;48.846;9.230;2023-05-27T04:17:47;10.60;98.50
680;DHT22;322;48.846;9.230;2023-05-27T04:20:15;10.60;98.70
680;DHT22;322;48.846;9.230;2023-05-27T04:22:43;10.60;98.80
680;DHT22;322;48.846;9.230;2023-05-27T04:25:11;10.60;98.90
680;DHT22;322;48.846;9.230;2023-05-27T04:27:39;10.70;99.20
680;DHT22;322;48.846;9.230;2023-05-27T04:30:08;10.80;98.80
680;DHT22;322;48.846;9.230;2023-05-27T04:32:37;10.80;96.80
680;DHT22;322;48.846;9.230;2023-05-27T04:35:06;11.00;98.40
680;DHT22;322;48.846;9.230;2023-05-27T04:37:35;11.10;97.40
680;DHT22;322;48.846;9.230;2023-05-27T04:40:04;11.20;96.90
680;DHT22;322;48.846;9.230;2023-05-27T04:42:35;11.30;94.40
680;DHT22;322;48.846;9.230;2023-05-27T04:45:04;11.40;93.90
680;DHT22;322;48.846;9.230;2023-05-27T04:47:32;11.60;93.40
680;DHT22;322;48.846;9.230;2023-05-27T04:50:08;11.70;93.20
680;DHT22;322;48.846;9.230;2023-05-27T04:52:36;11.80;92.80
680;DHT22;322;48.846;9.230;2023-05-27T04:55:09;11.90;92.60
680;DHT22;322;48.846;9.230;2023-05-27T04:57:37;12.00;92.20
680;DHT22;322;48.846;9.230;2023-05-27T05:00:09;12.10;91.60
680;DHT22;322;48.846;9.230;2023-05-27T05:02:50;12.20;91.40
680;DHT22;322;48.846;9.230;2023-05-27T05:05:29;12.30;91.30
680;DHT22;322;48.846;9.230;2023-05-27T05:07:58;12.40;91.40
680;DHT22;322;48.846;9.230;2023-05-27T05:10:26;12.50;91.50
680;DHT22;322;48.846;9.230;2023-05-27T05:12:54;12.50;91.00
680;DHT22;322;48.846;9.230;2023-05-27T05:15:23;12.60;90.80
680;DHT22;322;48.846;9.230;2023-05-27T05:17:51;12.60;90.90
680;DHT22;322;48.846;9.230;2023-05-27T05:20:21;12.70;90.90
680;DHT22;322;48.846;9.230;2023-05-27T05:22:51;12.80;90.80
680;DHT22;322;48.846;9.230;2023-05-27T05:25:19;12.90;90.30
680;DHT22;322;48.846;9.230;2023-05-27T05:27:47;13.00;89.50
680;DHT22;322;48.846;9.230;2023-05-27T05:30:15;13.00;90.40
680;DHT22;322;48.846;9.230;2023-05-27T05:32:43;13.20;89.70
680;DHT22;322;48.846;9.230;2023-05-27T05:35:12;13.30;87.70
680;DHT22;322;48.846;9.230;2023-05-27T05:37:40;13.40;86.10
680;DHT22;322;48.846;9.230;2023-05-27T05:40:10;13.40;82.20
680;DHT22;322;48.846;9.230;2023-05-27T05:42:38;13.50;83.10
680;DHT22;322;48.846;9.230;2023-05-27T05:45:07;13.50;82.90
680;DHT22;322;48.846;9.230;2023-05-27T05:47:35;13.60;82.40
680;DHT22;322;48.846;9.230;2023-05-27T05:50:04;13.70;82.40
680;DHT22;322;48.846;9.230;2023-05-27T05:52:32;13.80;82.10
680;DHT22;322;48.846;9.230;2023-05-27T05:55:00;13.80;81.70
680;DHT22;322;48.846;9.230;2023-05-27T05:57:30;13.90;83.30
680;DHT22;322;48.846;9.230;2023-05-27T06:00:02;13.90;81.20
680;DHT22;322;48.846;9.230;2023-05-27T06:02:31;14.10;80.90
680;DHT22;322;48.846;9.230;2023-05-27T06:05:00;14.10;79.50
680;DHT22;322;48.846;9.230;2023-05-27T06:07:28;14.20;80.00
680;DHT22;322;48.846;9.230;2023-05-27T06:09:56;14.20;80.00
680;DHT22;322;48.846;9.230;2023-05-27T06:12:24;14.30;80.00
680;DHT22;322;48.846;9.230;2023-05-27T06:14:54;14.30;78.00
680;DHT22;322;48.846;9.230;2023-05-27T06:17:22;14.30;76.60
680;DHT22;322;48.846;9.230;2023-05-27T06:19:50;14.40;77.50
680;DHT22;322;48.846;9.230;2023-05-27T06:22:18;14.40;77.50
680;DHT22;322;48.846;9.230;2023-05-27T06:24:46;14.50;78.90
680;DHT22;322;48.846;9.230;2023-05-27T06:27:14;14.60;76.90
680;DHT22;322;48.846;9.230;2023-05-27T06:29:42;14.60;77.20
680;DHT22;322;48.846;9.230;2023-05-27T06:32:12;14.80;78.70
680;DHT22;322;48.846;9.230;2023-05-27T06:34:40;14.80;75.90
680;DHT22;322;48.846;9.230;2023-05-27T06:37:08;14.90;80.50
680;DHT22;322;48.846;9.230;2023-05-27T06:39:36;15.00;77.10
680;DHT22;322;48.846;9.230;2023-05-27T06:42:04;15.10;78.60
680;DHT22;322;48.846;9.230;2023-05-27T06:44:32;15.20;76.70
680;DHT22;322;48.846;9.230;2023-05-27T06:47:00;15.40;75.00
680;DHT22;322;48.846;9.230;2023-05-27T06:49:30;15.40;72.20
680;DHT22;322;48.846;9.230;2023-05-27T06:51:58;15.40;71.90
680;DHT22;322;48.846;9.230;2023-05-27T06:54:26;15.40;71.40
680;DHT22;322;48.846;9.230;2023-05-27T06:56:54;15.50;71.50
680;DHT22;322;48.846;9.230;2023-05-27T06:59:22;15.60;71.20
680;DHT22;322;48.846;9.230;2023-05-27T07:01:50;15.70;70.80
680;DHT22;322;48.846;9.230;2023-05-27T07:04:19;15.80;73.30
680;DHT22;322;48.846;9.230;2023-05-27T07:06:48;15.90;73.30
680;DHT22;322;48.846;9.230;2023-05-27T07:09:16;16.10;72.00
680;DHT22;322;48.846;9.230;2023-05-27T07:11:44;16.20;69.70
680;DHT22;322;48.846;9.230;2023-05-27T07:14:12;16.40;68.80
680;DHT22;322;48.846;9.230;2023-05-27T07:16:40;16.50;68.20
680;DHT22;322;48.846;9.230;2023-05-27T07:19:08;16.60;70.90
680;DHT22;322;48.846;9.230;2023-05-27T07:21:36;16.70;68.10
680;DHT22;322;48.846;9.230;2023-05-27T07:24:06;16.80;69.10
680;DHT22;322;48.846;9.230;2023-05-27T07:26:34;16.80;66.00
680;DHT22;322;48.846;9.230;2023-05-27T07:29:02;16.80;67.10
680;DHT22;322;48.846;9.230;2023-05-27T07:31:30;16.90;67.10
680;DHT22;322;48.846;9.230;2023-05-27T07:33:58;16.90;66.20
680;DHT22;322;48.846;9.230;2023-05-27T07:36:26;17.00;65.80
680;DHT22;322;48.846;9.230;2023-05-27T07:38:54;17.10;66.00
680;DHT22;322;48.846;9.230;2023-05-27T07:41:24;17.30;64.80
680;DHT22;322;48.846;9.230;2023-05-27T07:43:52;17.20;63.90
680;DHT22;322;48.846;9.230;2023-05-27T07:46:20;17.30;65.60
680;DHT22;322;48.846;9.230;2023-05-27T07:48:48;17.50;63.20
680;DHT22;322;48.846;9.230;2023-05-27T07:51:17;17.50;63.70
680;DHT22;322;48.846;9.230;2023-05-27T07:53:45;17.60;64.10
680;DHT22;322;48.846;9.230;2023-05-27T07:56:14;17.60;64.00
680;DHT22;322;48.846;9.230;2023-05-27T07:58:43;17.80;63.60
680;DHT22;322;48.846;9.230;2023-05-27T08:01:12;17.90;63.10
680;DHT22;322;48.846;9.230;2023-05-27T08:03:40;17.90;62.40
680;DHT22;322;48.846;9.230;2023-05-27T08:06:08;18.10;63.70
680;DHT22;322;48.846;9.230;2023-05-27T08:08:39;18.30;62.40
680;DHT22;322;48.846;9.230;2023-05-27T08:11:07;18.50;64.30
680;DHT22;322;48.846;9.230;2023-05-27T08:13:35;18.60;63.40
680;DHT22;322;48.846;9.230;2023-05-27T08:16:04;18.70;63.90
680;DHT22;322;48.846;9.230;2023-05-27T08:18:33;18.80;62.20
680;DHT22;322;48.846;9.230;2023-05-27T08:21:01;18.80;60.80
680;DHT22;322;48.846;9.230;2023-05-27T08:23:29;18.90;62.40
680;DHT22;322;48.846;9.230;2023-05-27T08:25:57;18.90;61.20
680;DHT22;322;48.846;9.230;2023-05-27T08:28:25;18.90;60.10
680;DHT22;322;48.846;9.230;2023-05-27T08:30:53;18.80;59.30
680;DHT22;322;48.846;9.230;2023-05-27T08:33:23;19.00;60.70
680;DHT22;322;48.846;9.230;2023-05-27T08:35:51;19.00;59.10
680;DHT22;322;48.846;9.230;2023-05-27T08:38:19;19.10;59.10
680;DHT22;322;48.846;9.230;2023-05-27T08:40:47;19.30;59.90
680;DHT22;322;48.846;9.230;2023-05-27T08:43:16;19.40;59.20
680;DHT22;322;48.846;9.230;2023-05-27T08:45:45;19.50;59.70
680;DHT22;322;48.846;9.230;2023-05-27T08:48:13;19.60;58.70
680;DHT22;322;48.846;9.230;2023-05-27T08:50:43;19.50;58.80
680;DHT22;322;48.846;9.230;2023-05-27T08:53:13;19.70;58.20
680;DHT22;322;48.846;9.230;2023-05-27T08:55:41;19.70;58.20
680;DHT22;322;48.846;9.230;2023-05-27T08:58:10;19.70;57.70
680;DHT22;322;48.846;9.230;2023-05-27T09:00:39;19.90;59.50
680;DHT22;322;48.846;9.230;2023-05-27T09:03:09;20.20;58.90
680;DHT22;322;48.846;9.230;2023-05-27T09:05:37;20.20;57.80
680;DHT22;322;48.846;9.230;2023-05-27T09:08:06;20.30;59.20
680;DHT22;322;48.846;9.230;2023-05-27T09:10:35;20.50;58.40
680;DHT22;322;48.846;9.230;2023-05-27T09:13:03;20.60;58.80
680;DHT22;322;48.846;9.230;2023-05-27T09:15:32;20.90;57.80
680;DHT22;322;48.846;9.230;2023-05-27T09:18:02;21.10;57.40
680;DHT22;322;48.846;9.230;2023-05-27T09:20:30;21.00;55.70
680;DHT22;322;48.846;9.230;2023-05-27T09:23:00;21.00;57.80
680;DHT22;322;48.846;9.230;2023-05-27T09:25:30;21.10;56.60
680;DHT22;322;48.846;9.230;2023-05-27T09:27:58;21.30;56.80
680;DHT22;322;48.846;9.230;2023-05-27T09:30:26;21.60;56.80
680;DHT22;322;48.846;9.230;2023-05-27T09:33:01;21.90;56.60
680;DHT22;322;48.846;9.230;2023-05-27T09:35:30;22.30;56.10
680;DHT22;322;48.846;9.230;2023-05-27T09:38:05;22.60;55.30
680;DHT22;322;48.846;9.230;2023-05-27T09:40:35;23.00;54.80
680;DHT22;322;48.846;9.230;2023-05-27T09:43:03;23.10;51.30
680;DHT22;322;48.846;9.230;2023-05-27T09:45:31;22.80;53.70
680;DHT22;322;48.846;9.230;2023-05-27T09:48:01;22.40;53.10
680;DHT22;322;48.846;9.230;2023-05-27T09:50:30;22.50;54.20
680;DHT22;322;48.846;9.230;2023-05-27T09:53:00;22.90;54.30
680;DHT22;322;48.846;9.230;2023-05-27T09:55:39;23.60;53.50
680;DHT22;322;48.846;9.230;2023-05-27T09:58:08;24.30;49.50
680;DHT22;322;48.846;9.230;2023-05-27T10:00:37;24.00;51.20
680;DHT22;322;48.846;9.230;2023-05-27T10:03:07;24.40;49.10
680;DHT22;322;48.846;9.230;2023-05-27T10:05:37;24.90;51.80
680;DHT22;322;48.846;9.230;2023-05-27T10:08:05;25.70;48.20
680;DHT22;322;48.846;9.230;2023-05-27T10:10:52;25.50;49.00
680;DHT22;322;48.846;9.230;2023-05-27T10:13:24;25.40;50.10
680;DHT22;322;48.846;9.230;2023-05-27T10:15:52;25.90;49.90
680;DHT22;322;48.846;9.230;2023-05-27T10:18:25;26.40;46.40
680;DHT22;322;48.846;9.230;2023-05-27T10:20:54;26.50;46.30
680;DHT22;322;48.846;9.230;2023-05-27T10:23:25;26.90;48.10
680;DHT22;322;48.846;9.230;2023-05-27T10:25:56;26.80;45.00
680;DHT22;322;48.846;9.230;2023-05-27T10:28:25;27.10;47.60
680;DHT22;322;48.846;9.230;2023-05-27T10:30:53;27.60;45.00
680;DHT22;322;48.846;9.230;2023-05-27T10:33:31;27.70;43.90
680;DHT22;322;48.846;9.230;2023-05-27T10:36:04;27.30;42.40
680;DHT22;322;48.846;9.230;2023-05-27T10:38:37;26.80;45.00
680;DHT22;322;48.846;9.230;2023-05-27T10:41:10;27.10;44.70
680;DHT22;322;48.846;9.230;2023-05-27T10:43:38;26.90;43.50
680;DHT22;322;48.846;9.230;2023-05-27T10:46:08;26.30;45.10
680;DHT22;322;48.846;9.230;2023-05-27T10:48:37;26.60;45.20
680;DHT22;322;48.846;9.230;2023-05-27T10:51:07;26.50;43.30
680;DHT22;322;48.846;9.230;2023-05-27T10:53:36;26.50;43.40
680;DHT22;322;48.846;9.230;2023-05-27T10:56:05;26.60;40.90
680;DHT22;322;48.846;9.230;2023-05-27T10:58:35;27.00;45.30
680;DHT22;322;48.846;9.230;2023-05-27T11:01:09;27.70;43.90
680;DHT22;322;48.846;9.230;2023-05-27T11:03:42;28.30;42.90
680;DHT22;322;48.846;9.230;2023-05-27T11:06:12;29.00;41.60
680;DHT22;322;48.846;9.230;2023-05-27T11:08:42;29.40;41.70
680;DHT22;322;48.846;9.230;2023-05-27T11:11:11;29.70;38.70
680;DHT22;322;48.846;9.230;2023-05-27T11:13:42;28.10;38.40
680;DHT22;322;48.846;9.230;2023-05-27T11:16:13;27.40;42.70
680;DHT22;322;48.846;9.230;2023-05-27T11:18:43;27.30;41.20
680;DHT22;322;48.846;9.230;2023-05-27T11:21:12;27.50;40.70
680;DHT22;322;48.846;9.230;2023-05-27T11:23:43;28.10;40.40
680;DHT22;322;48.846;9.230;2023-05-27T11:26:16;27.40;39.80
680;DHT22;322;48.846;9.230;2023-05-27T11:28:47;27.70;41.80
680;DHT22;322;48.846;9.230;2023-05-27T11:31:15;27.60;40.70
680;DHT22;322;48.846;9.230;2023-05-27T11:33:44;26.30;40.80
680;DHT22;322;48.846;9.230;2023-05-27T11:36:14;26.10;41.30
680;DHT22;322;48.846;9.230;2023-05-27T11:38:50;26.20;44.30
680;DHT22;322;48.846;9.230;2023-05-27T11:41:19;27.40;44.30
680;DHT22;322;48.846;9.230;2023-05-27T11:43:55;28.70;41.90
680;DHT22;322;48.846;9.230;2023-05-27T11:46:24;28.70;40.70
680;DHT22;322;48.846;9.230;2023-05-27T11:48:52;28.70;40.20
680;DHT22;322;48.846;9.230;2023-05-27T11:51:26;27.80;40.20
680;DHT22;322;48.846;9.230;2023-05-27T11:53:56;27.40;39.60
680;DHT22;322;48.846;9.230;2023-05-27T11:56:25;27.60;41.60
680;DHT22;322;48.846;9.230;2023-05-27T11:58:55;28.30;38.40
680;DHT22;322;48.846;9.230;2023-05-27T12:01:23;29.00;42.00
680;DHT22;322;48.846;9.230;2023-05-27T12:03:51;29.50;38.70
680;DHT22;322;48.846;9.230;2023-05-27T12:06:19;29.10;39.90
680;DHT22;322;48.846;9.230;2023-05-27T12:08:47;29.20;40.50
680;DHT22;322;48.846;9.230;2023-05-27T12:11:15;29.80;39.40
680;DHT22;322;48.846;9.230;2023-05-27T12:13:43;29.50;34.60
680;DHT22;322;48.846;9.230;2023-05-27T12:16:12;28.00;37.50
680;DHT22;322;48.846;9.230;2023-05-27T12:18:40;28.60;44.00
680;DHT22;322;48.846;9.230;2023-05-27T12:21:08;30.00;40.40
680;DHT22;322;48.846;9.230;2023-05-27T12:23:36;30.60;38.40
680;DHT22;322;48.846;9.230;2023-05-27T12:26:04;30.00;33.60
680;DHT22;322;48.846;9.230;2023-05-27T12:28:32;29.20;35.40
680;DHT22;322;48.846;9.230;2023-05-27T12:31:00;28.40;35.60
680;DHT22;322;48.846;9.230;2023-05-27T12:33:30;28.30;39.00
680;DHT22;322;48.846;9.230;2023-05-27T12:35:58;29.10;40.10
680;DHT22;322;48.846;9.230;2023-05-27T12:38:26;29.60;39.00
680;DHT22;322;48.846;9.230;2023-05-27T12:40:54;30.50;35.20
680;DHT22;322;48.846;9.230;2023-05-27T12:43:23;30.00;33.70
680;DHT22;322;48.846;9.230;2023-05-27T12:45:51;29.10;36.10
680;DHT22;322;48.846;9.230;2023-05-27T12:48:20;29.80;37.90
680;DHT22;322;48.846;9.230;2023-05-27T12:50:50;29.20;35.00
680;DHT22;322;48.846;9.230;2023-05-27T12:53:18;28.10;35.90
680;DHT22;322;48.846;9.230;2023-05-27T12:55:46;27.40;36.70
680;DHT22;322;48.846;9.230;2023-05-27T12:58:14;27.90;39.00
680;DHT22;322;48.846;9.230;2023-05-27T13:00:42;29.00;35.70
680;DHT22;322;48.846;9.230;2023-05-27T13:03:11;29.30;33.80
680;DHT22;322;48.846;9.230;2023-05-27T13:05:41;28.50;36.20
680;DHT22;322;48.846;9.230;2023-05-27T13:08:10;27.90;36.90
680;DHT22;322;48.846;9.230;2023-05-27T13:10:38;27.00;37.60
680;DHT22;322;48.846;9.230;2023-05-27T13:13:07;25.80;39.50
680;DHT22;322;48.846;9.230;2023-05-27T13:15:35;27.00;41.80
680;DHT22;322;48.846;9.230;2023-05-27T13:18:04;28.70;38.80
680;DHT22;322;48.846;9.230;2023-05-27T13:20:33;30.40;36.40
680;DHT22;322;48.846;9.230;2023-05-27T13:23:01;31.90;35.30
680;DHT22;322;48.846;9.230;2023-05-27T13:25:31;32.90;30.60
680;DHT22;322;48.846;9.230;2023-05-27T13:27:59;31.50;30.30
680;DHT22;322;48.846;9.230;2023-05-27T13:30:27;30.10;32.90
680;DHT22;322;48.846;9.230;2023-05-27T13:32:55;28.90;34.30
680;DHT22;322;48.846;9.230;2023-05-27T13:35:23;29.10;37.20
680;DHT22;322;48.846;9.230;2023-05-27T13:37:51;30.50;35.60
680;DHT22;322;48.846;9.230;2023-05-27T13:40:21;31.50;32.10
680;DHT22;322;48.846;9.230;2023-05-27T13:42:50;32.40;31.90
680;DHT22;322;48.846;9.230;2023-05-27T13:45:19;33.10;31.50
680;DHT22;322;48.846;9.230;2023-05-27T13:47:47;32.90;32.20
680;DHT22;322;48.846;9.230;2023-05-27T13:50:17;31.20;29.70
680;DHT22;322;48.846;9.230;2023-05-27T13:52:45;29.30;35.20
680;DHT22;322;48.846;9.230;2023-05-27T13:55:13;30.00;33.60
680;DHT22;322;48.846;9.230;2023-05-27T13:57:41;30.70;34.00
680;DHT22;322;48.846;9.230;2023-05-27T14:00:12;31.60;31.90
680;DHT22;322;48.846;9.230;2023-05-27T14:02:42;32.40;31.40
680;DHT22;322;48.846;9.230;2023-05-27T14:05:10;32.70;31.20
680;DHT22;322;48.846;9.230;2023-05-27T14:07:42;32.40;30.00
680;DHT22;322;48.846;9.230;2023-05-27T14:10:12;30.80;29.90
680;DHT22;322;48.846;9.230;2023-05-27T14:12:40;30.40;32.20
680;DHT22;322;48.846;9.230;2023-05-27T14:15:09;31.20;31.60
680;DHT22;322;48.846;9.230;2023-05-27T14:17:38;31.90;30.30
680;DHT22;322;48.846;9.230;2023-05-27T14:20:07;32.00;30.10
680;DHT22;322;48.846;9.230;2023-05-27T14:22:37;32.50;28.30
680;DHT22;322;48.846;9.230;2023-05-27T14:25:06;30.60;28.90
680;DHT22;322;48.846;9.230;2023-05-27T14:27:34;30.00;29.90
680;DHT22;322;48.846;9.230;2023-05-27T14:30:02;29.20;33.00
680;DHT22;322;48.846;9.230;2023-05-27T14:32:30;29.50;30.00
680;DHT22;322;48.846;9.230;2023-05-27T14:35:00;28.80;30.40
680;DHT22;322;48.846;9.230;2023-05-27T14:37:28;27.90;30.90
680;DHT22;322;48.846;9.230;2023-05-27T14:39:56;27.40;31.00
680;DHT22;322;48.846;9.230;2023-05-27T14:42:24;28.10;32.70
680;DHT22;322;48.846;9.230;2023-05-27T14:44:52;29.00;29.40
680;DHT22;322;48.846;9.230;2023-05-27T14:47:20;28.70;29.80
680;DHT22;322;48.846;9.230;2023-05-27T14:49:48;28.70;31.70
680;DHT22;322;48.846;9.230;2023-05-27T14:52:17;28.50;30.00
680;DHT22;322;48.846;9.230;2023-05-27T14:54:45;28.50;30.10
680;DHT22;322;48.846;9.230;2023-05-27T14:57:13;28.70;30.10
680;DHT22;322;48.846;9.230;2023-05-27T14:59:42;29.30;32.70
680;DHT22;322;48.846;9.230;2023-05-27T15:02:10;30.10;30.20
680;DHT22;322;48.846;9.230;2023-05-27T15:04:38;29.60;29.20
680;DHT22;322;48.846;9.230;2023-05-27T15:07:06;28.50;29.60
680;DHT22;322;48.846;9.230;2023-05-27T15:09:36;28.20;30.20
680;DHT22;322;48.846;9.230;2023-05-27T15:12:04;29.10;31.90
680;DHT22;322;48.846;9.230;2023-05-27T15:14:33;30.30;29.70
680;DHT22;322;48.846;9.230;2023-05-27T15:17:01;29.90;28.00
680;DHT22;322;48.846;9.230;2023-05-27T15:19:31;29.30;27.50
680;DHT22;322;48.846;9.230;2023-05-27T15:21:59;28.40;30.00
680;DHT22;322;48.846;9.230;2023-05-27T15:24:27;27.90;29.60
680;DHT22;322;48.846;9.230;2023-05-27T15:26:56;27.70;31.80
680;DHT22;322;48.846;9.230;2023-05-27T15:29:25;28.80;31.90
680;DHT22;322;48.846;9.230;2023-05-27T15:31:53;29.10;28.40
680;DHT22;322;48.846;9.230;2023-05-27T15:34:21;28.80;29.00
680;DHT22;322;48.846;9.230;2023-05-27T15:36:50;29.10;31.30
680;DHT22;322;48.846;9.230;2023-05-27T15:39:20;28.50;28.80
680;DHT22;322;48.846;9.230;2023-05-27T15:41:48;28.90;29.60
680;DHT22;322;48.846;9.230;2023-05-27T15:44:18;29.20;29.10
680;DHT22;322;48.846;9.230;2023-05-27T15:46:46;28.80;28.50
680;DHT22;322;48.846;9.230;2023-05-27T15:49:15;29.20;29.50
680;DHT22;322;48.846;9.230;2023-05-27T15:51:43;28.70;29.10
680;DHT22;322;48.846;9.230;2023-05-27T15:54:11;28.30;29.20
680;DHT22;322;48.846;9.230;2023-05-27T15:56:39;28.60;31.40
680;DHT22;322;48.846;9.230;2023-05-27T15:59:08;29.40;29.80
680;DHT22;322;48.846;9.230;2023-05-27T16:01:37;30.00;30.20
680;DHT22;322;48.846;9.230;2023-05-27T16:04:05;30.70;26.10
680;DHT22;322;48.846;9.230;2023-05-27T16:06:34;31.00;27.30
680;DHT22;322;48.846;9.230;2023-05-27T16:09:02;31.40;28.20
680;DHT22;322;48.846;9.230;2023-05-27T16:11:30;31.60;27.50
680;DHT22;322;48.846;9.230;2023-05-27T16:13:58;31.90;28.70
680;DHT22;322;48.846;9.230;2023-05-27T16:16:26;32.10;28.10
680;DHT22;322;48.846;9.230;2023-05-27T16:18:56;32.40;28.50
680;DHT22;322;48.846;9.230;2023-05-27T16:21:24;31.80;28.50
680;DHT22;322;48.846;9.230;2023-05-27T16:23:52;31.50;30.40
680;DHT22;322;48.846;9.230;2023-05-27T16:26:33;30.80;30.00
680;DHT22;322;48.846;9.230;2023-05-27T16:29:01;30.90;28.20
680;DHT22;322;48.846;9.230;2023-05-27T16:31:29;30.00;28.50
680;DHT22;322;48.846;9.230;2023-05-27T16:34:01;28.80;28.80
680;DHT22;322;48.846;9.230;2023-05-27T16:36:31;28.50;30.80
680;DHT22;322;48.846;9.230;2023-05-27T16:38:59;28.80;31.80
680;DHT22;322;48.846;9.230;2023-05-27T16:41:27;29.30;30.90
680;DHT22;322;48.846;9.230;2023-05-27T16:43:55;29.60;29.60
680;DHT22;322;48.846;9.230;2023-05-27T16:46:23;29.90;29.20